Time;durP1;ratioP1;P1;durP2;ratioP2;P2;SDS_P1;SDS_P2;PMS_P1;PMS_P2;Temp;Humidity;BMP_temperature;BMP_pressure;BME280_temperature;BME280_humidity;BME280_pressure;Samples;Min_cycle;Max_cycle;Signal;HPM_P1;HPM_P2
2022/07/12 00:01:52;;;;;;;3.60;2.47;;;15.20;99.90;;;15.00;100.00;97868.13;4935182;28;20063;-35
2022/07/12 00:04:18;;;;;;;2.88;2.28;;;15.20;99.90;;;14.97;100.00;97880.72;4941227;28;20042;-36
2022/07/12 00:06:44;;;;;;;6.10;2.60;;;15.20;99.90;;;14.95;100.00;97878.13;4943263;29;20031;-35
2022/07/12 00:09:10;;;;;;;4.13;2.80;;;15.20;99.90;;;14.92;100.00;97878.25;4940436;28;20027;-36
2022/07/12 00:11:36;;;;;;;3.10;2.80;;;15.10;99.90;;;14.89;100.00;97883.69;4941915;28;20852;-35
2022/07/12 00:14:03;;;;;;;3.90;2.88;;;15.10;99.90;;;14.84;100.00;97885.69;4938223;28;20048;-35
2022/07/12 00:16:29;;;;;;;3.65;2.72;;;15.00;99.90;;;14.76;100.00;97894.03;4943933;28;20527;-35
2022/07/12 00:18:55;;;;;;;2.92;2.33;;;15.00;99.90;;;14.73;100.00;97885.34;4941334;28;20027;-35
2022/07/12 00:21:21;;;;;;;2.60;2.40;;;14.90;99.90;;;14.66;100.00;97885.63;4944223;28;20472;-44
2022/07/12 00:23:46;;;;;;;3.50;2.80;;;14.90;99.90;;;14.62;100.00;97886.69;4939383;28;20074;-36
2022/07/12 00:26:12;;;;;;;4.28;2.97;;;14.80;99.90;;;14.58;100.00;97885.13;4944862;29;20412;-35
2022/07/12 00:28:38;;;;;;;3.53;2.72;;;14.80;99.90;;;14.51;100.00;97879.19;4941585;28;20459;-36
2022/07/12 00:31:04;;;;;;;3.65;2.55;;;14.70;99.90;;;14.43;100.00;97877.81;4940920;28;20480;-36
2022/07/12 00:33:30;;;;;;;4.25;2.80;;;14.70;99.90;;;14.44;100.00;97887.50;4940013;28;20069;-35
2022/07/12 00:35:56;;;;;;;3.83;2.95;;;14.60;99.90;;;14.42;100.00;97887.56;4941724;28;20031;-35
2022/07/12 00:38:21;;;;;;;3.97;2.92;;;14.60;99.90;;;14.40;100.00;97880.59;4935412;28;20039;-36
2022/07/12 00:40:49;;;;;;;3.72;2.85;;;14.60;99.90;;;14.46;100.00;97885.63;4938165;28;20038;-36
2022/07/12 00:43:15;;;;;;;3.67;2.97;;;14.60;99.90;;;14.42;100.00;97876.94;4939843;28;20443;-36
2022/07/12 00:45:40;;;;;;;2.55;2.30;;;14.60;99.90;;;14.49;100.00;97885.50;4936874;28;20035;-36
2022/07/12 00:48:07;;;;;;;4.47;2.63;;;14.70;99.90;;;14.49;100.00;97881.03;4943350;29;20123;-36
2022/07/12 00:50:32;;;;;;;2.95;2.65;;;14.70;99.90;;;14.49;100.00;97881.03;4936700;28;20125;-35
2022/07/12 00:52:58;;;;;;;3.20;2.90;;;14.70;99.90;;;14.52;100.00;97872.94;4922379;28;20169;-36
2022/07/12 00:55:25;;;;;;;3.97;3.13;;;14.80;99.90;;;14.61;100.00;97879.69;4939955;28;20031;-35
2022/07/12 00:57:51;;;;;;;4.15;2.83;;;14.80;99.90;;;14.67;100.00;97878.53;4942017;28;20043;-36
2022/07/12 01:00:24;;;;;;;5.05;2.83;;;14.90;99.90;;;14.69;100.00;97882.81;4940566;28;20039;-36
2022/07/12 01:02:52;;;;;;;3.70;2.83;;;14.80;99.90;;;14.72;100.00;97881.84;4943550;29;20427;-36
2022/07/12 01:05:18;;;;;;;2.95;2.58;;;14.90;99.90;;;14.75;100.00;97881.72;4936370;28;20083;-36
2022/07/12 01:07:45;;;;;;;3.50;2.92;;;14.90;99.90;;;14.77;100.00;97878.94;4937144;28;20427;-36
2022/07/12 01:10:10;;;;;;;4.30;2.63;;;15.00;99.90;;;14.77;100.00;97884.25;4940167;29;20391;-36
2022/07/12 01:12:37;;;;;;;3.83;2.80;;;15.00;99.90;;;14.76;100.00;97882.56;4948628;29;20034;-36
2022/07/12 01:15:06;;;;;;;3.33;2.60;;;14.90;99.90;;;14.76;100.00;97882.56;4939702;28;20054;-36
2022/07/12 01:17:32;;;;;;;5.95;3.35;;;15.00;99.90;;;14.75;100.00;97887.00;4944087;28;20110;-35
2022/07/12 01:19:58;;;;;;;3.78;2.90;;;15.00;99.90;;;14.74;100.00;97884.44;4946839;28;20546;-35
2022/07/12 01:22:34;;;;;;;3.65;2.78;;;14.90;99.90;;;14.68;100.00;97885.56;4927454;29;20027;-35
2022/07/12 01:25:02;;;;;;;3.08;2.30;;;14.90;99.90;;;14.64;100.00;97883.97;4941218;28;20403;-35
2022/07/12 01:27:29;;;;;;;3.25;2.40;;;14.80;99.90;;;14.60;100.00;97885.91;4942713;28;20097;-35
2022/07/12 01:29:55;;;;;;;2.97;2.13;;;14.80;99.90;;;14.58;100.00;97887.78;4948277;28;20027;-36
2022/07/12 01:32:24;;;;;;;2.72;2.22;;;14.80;99.90;;;14.57;100.00;97886.03;4948340;29;20267;-35
2022/07/12 01:34:53;;;;;;;2.67;2.17;;;14.80;99.90;;;14.49;100.00;97877.53;4945723;28;20093;-35
2022/07/12 01:37:21;;;;;;;2.65;2.10;;;14.80;99.90;;;14.51;100.00;97888.94;4940055;28;20468;-36
2022/07/12 01:39:53;;;;;;;4.13;2.15;;;14.70;99.90;;;14.46;100.00;97881.22;4942722;28;20039;-35
2022/07/12 01:42:21;;;;;;;2.10;1.88;;;14.60;99.90;;;14.43;100.00;97886.66;4945249;28;20042;-36
2022/07/12 01:44:49;;;;;;;2.38;2.17;;;14.60;99.90;;;14.39;100.00;97882.41;4942919;28;20121;-35
2022/07/12 01:47:16;;;;;;;2.20;1.83;;;14.60;99.90;;;14.35;100.00;97878.16;4944316;28;20039;-36
2022/07/12 01:49:42;;;;;;;2.13;1.80;;;14.60;99.90;;;14.31;100.00;97884.53;4946162;28;20676;-35
2022/07/12 01:52:09;;;;;;;2.13;1.73;;;14.50;99.90;;;14.26;100.00;97870.59;4947915;29;20027;-35
2022/07/12 01:54:35;;;;;;;3.05;2.05;;;14.50;99.90;;;14.26;100.00;97876.75;4943012;28;20061;-35
2022/07/12 01:57:02;;;;;;;3.33;2.22;;;14.50;99.90;;;14.25;100.00;97876.84;4945875;28;20055;-35
2022/07/12 01:59:29;;;;;;;2.50;2.00;;;14.40;99.90;;;14.22;100.00;97877.84;4948420;28;20062;-35
2022/07/12 02:01:56;;;;;;;2.42;2.00;;;14.40;99.90;;;14.19;100.00;97874.47;4943112;28;20031;-35
2022/07/12 02:04:22;;;;;;;2.83;2.50;;;14.40;99.90;;;14.13;100.00;97871.13;4944779;28;20408;-35
2022/07/12 02:06:48;;;;;;;2.92;2.38;;;14.40;99.90;;;14.09;100.00;97877.53;4945416;28;20545;-35
2022/07/12 02:09:15;;;;;;;3.60;2.67;;;14.30;99.90;;;14.04;100.00;97878.66;4942359;28;20376;-35
2022/07/12 02:11:42;;;;;;;3.10;2.80;;;14.30;99.90;;;14.04;100.00;97876.84;4946272;28;20034;-35
2022/07/12 02:14:09;;;;;;;2.78;2.50;;;14.20;99.90;;;14.00;100.00;97877.03;4945498;28;20074;-35
2022/07/12 02:16:35;;;;;;;3.50;2.80;;;14.20;99.90;;;13.96;100.00;97881.59;4946819;28;20107;-35
2022/07/12 02:19:01;;;;;;;3.08;2.50;;;14.20;99.90;;;13.95;100.00;97879.91;4943330;28;20039;-35
2022/07/12 02:21:27;;;;;;;3.33;2.92;;;14.10;99.90;;;13.89;100.00;97881.03;4944746;28;20031;-35
2022/07/12 02:23:53;;;;;;;4.10;2.70;;;14.10;99.90;;;13.84;100.00;97880.34;4943369;29;20542;-35
2022/07/12 02:26:19;;;;;;;3.00;2.53;;;14.10;99.90;;;13.81;100.00;97872.53;4942841;28;20522;-36
2022/07/12 02:28:45;;;;;;;3.42;2.70;;;14.00;99.90;;;13.79;100.00;97877.03;4946564;28;20139;-36
2022/07/12 02:31:10;;;;;;;3.85;2.50;;;14.00;99.90;;;13.75;100.00;97878.09;4943351;28;20027;-35
2022/07/12 02:33:36;;;;;;;2.92;2.60;;;13.90;99.90;;;13.73;100.00;97874.66;4947075;28;20403;-35
2022/07/12 02:36:02;;;;;;;3.20;2.45;;;13.90;99.90;;;13.69;100.00;97870.38;4943138;28;20031;-35
2022/07/12 02:38:28;;;;;;;3.15;2.42;;;13.90;99.90;;;13.63;100.00;97863.56;4939666;28;20073;-35
2022/07/12 02:40:54;;;;;;;4.00;2.72;;;13.90;99.90;;;13.59;100.00;97877.88;4945096;28;20503;-35
2022/07/12 02:43:25;;;;;;;3.58;2.30;;;13.80;99.90;;;13.55;100.00;97873.63;4944158;28;20057;-35
2022/07/12 02:45:52;;;;;;;2.55;2.35;;;13.80;99.90;;;13.51;100.00;97874.66;4943580;28;20495;-35
2022/07/12 02:48:19;;;;;;;2.72;2.30;;;13.70;99.90;;;13.48;100.00;97867.72;4945298;28;20093;-35
2022/07/12 02:50:45;;;;;;;2.88;2.35;;;13.70;99.90;;;13.44;100.00;97873.19;4945324;28;20042;-35
2022/07/12 02:53:11;;;;;;;4.65;2.75;;;13.70;99.90;;;13.41;100.00;97876.00;4946359;28;20035;-35
2022/07/12 02:55:38;;;;;;;2.58;2.20;;;13.60;99.90;;;13.39;100.00;97870.75;4945922;29;20031;-36
2022/07/12 02:58:07;;;;;;;2.20;2.00;;;13.60;99.90;;;13.36;100.00;97871.72;4946872;28;20066;-35
2022/07/12 03:00:34;;;;;;;3.72;2.20;;;13.60;99.90;;;13.36;100.00;97870.88;4941394;28;20059;-35
2022/07/12 03:03:03;;;;;;;2.38;2.13;;;13.60;99.90;;;13.36;100.00;97870.88;4943435;28;20039;-35
2022/07/12 03:05:29;;;;;;;2.63;2.10;;;13.60;99.90;;;13.35;100.00;97870.00;4943203;28;20121;-35
2022/07/12 03:07:54;;;;;;;2.13;1.92;;;13.60;99.90;;;13.35;100.00;97869.13;4942024;28;20177;-35
2022/07/12 03:10:20;;;;;;;3.65;2.45;;;13.60;99.90;;;13.36;100.00;97877.03;4944336;28;20435;-35
2022/07/12 03:12:46;;;;;;;3.50;2.25;;;13.60;99.90;;;13.34;100.00;97880.66;4946835;28;20023;-35
2022/07/12 03:15:12;;;;;;;2.60;2.13;;;13.60;99.90;;;13.33;100.00;97887.75;4939682;28;20117;-35
2022/07/12 03:17:38;;;;;;;2.20;1.83;;;13.50;99.90;;;13.24;100.00;97879.28;4938933;28;20220;-35
2022/07/12 03:20:11;;;;;;;2.30;2.10;;;13.50;99.90;;;13.27;100.00;97882.66;4944354;29;20085;-35
2022/07/12 03:22:37;;;;;;;2.85;2.05;;;13.50;99.90;;;13.30;100.00;97889.63;4925546;29;20040;-35
2022/07/12 03:25:04;;;;;;;2.78;2.00;;;13.50;99.90;;;13.31;100.00;97886.09;4941991;28;20046;-35
2022/07/12 03:27:33;;;;;;;3.55;2.30;;;13.50;99.90;;;13.30;100.00;97885.19;4945358;28;20047;-35
2022/07/12 03:29:59;;;;;;;2.92;2.22;;;13.60;99.90;;;13.31;100.00;97886.09;4943708;28;20542;-35
2022/07/12 03:32:25;;;;;;;2.67;1.98;;;13.60;99.90;;;13.31;100.00;97886.09;4943512;28;20054;-35
2022/07/12 03:34:50;;;;;;;2.75;2.13;;;13.60;99.90;;;13.30;100.00;97895.78;4943191;28;20582;-35
2022/07/12 03:37:16;;;;;;;3.00;2.20;;;13.60;99.90;;;13.34;100.00;97894.78;4941703;28;20035;-35
2022/07/12 03:39:42;;;;;;;2.65;2.20;;;13.60;99.90;;;13.35;100.00;97903.56;4942540;28;20031;-35
2022/07/12 03:42:07;;;;;;;2.92;1.88;;;13.60;99.90;;;13.33;100.00;97906.31;4942946;28;20039;-35
2022/07/12 03:44:33;;;;;;;2.95;2.40;;;13.60;99.90;;;13.35;100.00;97914.16;4939979;28;20272;-35
2022/07/12 03:46:59;;;;;;;2.40;2.20;;;13.60;99.90;;;13.34;100.00;97915.09;4941895;28;20031;-35
2022/07/12 03:49:25;;;;;;;2.63;2.10;;;13.60;99.90;;;13.31;100.00;97915.22;4942690;28;20019;-35
2022/07/12 03:51:51;;;;;;;2.17;1.98;;;13.60;99.90;;;13.30;100.00;97914.34;4945861;28;20062;-35
2022/07/12 03:54:17;;;;;;;3.25;2.42;;;13.60;99.90;;;13.28;100.00;97912.66;4944832;28;20110;-35
2022/07/12 03:59:27;;;;;;;2.70;2.17;;;13.50;99.90;;;13.26;100.00;97922.44;4939510;28;20554;-35
2022/07/12 04:01:53;;;;;;;4.22;2.60;;;13.50;99.90;;;13.25;100.00;97937.50;4942288;28;20054;-35
2022/07/12 04:04:18;;;;;;;2.75;2.35;;;13.50;99.90;;;13.21;100.00;97927.06;4942329;28;20027;-35
2022/07/12 04:06:44;;;;;;;3.25;2.47;;;13.50;99.90;;;13.29;100.00;97927.63;4942519;28;20038;-35
2022/07/12 04:09:10;;;;;;;3.20;2.53;;;13.50;99.90;;;13.32;100.00;97932.84;4944187;28;20035;-35
2022/07/12 04:11:36;;;;;;;3.20;2.58;;;13.50;99.90;;;13.38;100.00;97929.94;4942850;28;20042;-35
2022/07/12 04:14:02;;;;;;;3.08;2.33;;;13.60;99.90;;;13.42;100.00;97928.03;4936774;28;20035;-35
2022/07/12 04:16:29;;;;;;;3.83;2.65;;;13.60;99.90;;;13.52;100.00;97934.72;4940247;28;20054;-36
2022/07/12 04:18:55;;;;;;;2.92;2.20;;;13.70;99.90;;;13.59;100.00;97935.31;4943373;28;20432;-35
2022/07/12 04:21:21;;;;;;;2.58;2.38;;;13.80;99.90;;;13.68;100.00;97934.94;4944421;28;20027;-35
2022/07/12 04:23:47;;;;;;;3.28;2.28;;;13.80;99.90;;;13.73;100.00;97927.69;4943841;28;20027;-36
2022/07/12 04:26:13;;;;;;;3.05;2.40;;;13.90;99.90;;;13.75;100.00;97928.47;4942110;28;20032;-36
2022/07/12 04:28:39;;;;;;;3.03;2.40;;;13.90;99.90;;;13.76;100.00;97922.22;4940588;28;20468;-35
2022/07/12 04:31:06;;;;;;;3.67;2.42;;;14.00;99.90;;;13.78;100.00;97930.97;4940959;28;20106;-36
2022/07/12 04:33:33;;;;;;;3.08;2.45;;;14.00;99.90;;;13.78;100.00;97923.03;4942031;28;20035;-35
2022/07/12 04:35:59;;;;;;;3.35;2.50;;;14.10;99.90;;;13.88;100.00;97937.63;4944421;28;20034;-36
2022/07/12 04:38:25;;;;;;;3.17;2.50;;;14.10;99.90;;;13.97;100.00;97936.38;4940044;28;20245;-35
2022/07/12 04:40:50;;;;;;;3.15;2.70;;;14.20;99.90;;;14.01;100.00;97935.31;4941274;28;20035;-36
2022/07/12 04:43:16;;;;;;;2.80;2.50;;;14.30;99.90;;;14.08;100.00;97936.78;4933878;28;20027;-35
2022/07/12 04:45:43;;;;;;;8.82;3.03;;;14.30;99.90;;;14.12;100.00;97934.84;4933152;28;20082;-35
2022/07/12 04:48:10;;;;;;;3.80;2.38;;;14.40;99.90;;;14.18;100.00;97931.97;4941524;29;20700;-35
2022/07/12 04:50:36;;;;;;;3.92;2.30;;;14.50;99.90;;;14.26;100.00;97934.28;4943128;28;20106;-36
2022/07/12 04:53:02;;;;;;;2.60;2.30;;;14.50;99.90;;;14.31;100.00;97933.13;4939067;28;20424;-36
2022/07/12 04:55:29;;;;;;;3.95;2.53;;;14.60;99.90;;;14.36;100.00;97927.66;4942935;28;20062;-36
2022/07/12 04:57:55;;;;;;;4.55;2.70;;;14.60;99.90;;;14.42;100.00;97930.00;4944319;29;20031;-36
2022/07/12 05:00:22;;;;;;;3.95;2.40;;;14.70;99.90;;;14.50;100.00;97932.34;4942465;28;20035;-36
2022/07/12 05:02:47;;;;;;;2.88;1.92;;;14.70;99.90;;;14.59;100.00;97926.66;4942002;29;20031;-35
2022/07/12 05:05:14;;;;;;;3.33;2.78;;;14.80;99.90;;;14.64;100.00;97937.06;4946256;29;20047;-36
2022/07/12 05:07:40;;;;;;;3.17;2.67;;;14.90;99.90;;;14.78;100.00;97939.09;4932494;28;20168;-36
2022/07/12 05:10:07;;;;;;;4.13;2.97;;;15.00;99.90;;;14.93;100.00;97943.72;4942931;28;20045;-35
2022/07/12 05:12:35;;;;;;;3.70;2.60;;;15.10;99.90;;;15.21;100.00;97947.75;4942731;28;20058;-35
2022/07/12 05:15:01;;;;;;;4.20;2.88;;;15.30;99.90;;;15.68;100.00;97928.63;4951529;23;20035;-46
2022/07/12 05:17:27;;;;;;;3.22;2.60;;;15.60;99.90;;;16.70;100.00;97952.78;4942155;28;20117;-46
2022/07/12 05:19:52;;;;;;;3.22;2.28;;;16.20;99.90;;;17.78;100.00;97945.06;4959598;28;20491;-42
2022/07/12 05:22:18;;;;;;;4.38;2.53;;;16.80;99.90;;;18.88;92.84;97944.84;4957343;28;20159;-47
2022/07/12 05:24:44;;;;;;;2.75;2.40;;;17.60;99.90;;;19.70;84.92;97956.56;4960150;28;20027;-45
2022/07/12 05:27:10;;;;;;;3.70;2.20;;;18.30;99.90;;;20.36;78.80;97967.44;4944152;28;20043;-47
2022/07/12 05:29:35;;;;;;;2.35;1.83;;;18.90;99.90;;;21.14;73.75;97954.00;4941950;28;20036;-47
2022/07/12 05:32:02;;;;;;;2.10;1.67;;;19.50;99.90;;;21.86;69.73;97961.34;4943547;28;20043;-47
2022/07/12 05:34:28;;;;;;;2.05;1.67;;;20.00;99.90;;;22.36;68.49;97961.25;4940354;28;20034;-47
2022/07/12 05:36:53;;;;;;;4.30;2.13;;;20.40;99.90;;;22.48;67.61;97962.97;4939707;28;20027;-46
2022/07/12 05:39:19;;;;;;;4.10;2.33;;;20.80;99.90;;;21.85;64.13;97959.63;4943901;28;20341;-47
2022/07/12 05:41:46;;;;;;;3.58;2.15;;;20.70;99.90;;;21.45;68.76;97967.03;4927744;29;20122;-44
2022/07/12 05:44:13;;;;;;;3.35;2.25;;;20.40;99.90;;;20.84;71.09;97973.09;4940324;29;20238;-44
2022/07/12 05:46:40;;;;;;;6.65;1.88;;;20.10;99.90;;;20.34;74.27;97964.84;4946659;28;20059;-44
2022/07/12 05:49:07;;;;;;;2.67;2.00;;;19.80;99.90;;;20.04;75.75;97970.44;4943063;28;20035;-48
2022/07/12 05:54:17;;;;;;;2.22;1.90;;;19.50;99.90;;;19.58;78.28;97981.47;4945850;28;20059;-48
2022/07/12 05:56:43;;;;;;;1.90;1.70;;;19.30;99.90;;;19.40;79.58;97981.69;4943845;28;20023;-45
2022/07/12 05:59:08;;;;;;;1.88;1.55;;;19.20;99.90;;;19.25;80.55;97983.50;4940942;28;20039;-45
2022/07/12 06:01:34;;;;;;;3.40;1.88;;;19.10;99.90;;;19.11;81.65;97991.50;4946037;28;20383;-43
2022/07/12 06:04:01;;;;;;;1.65;1.48;;;19.00;99.90;;;19.04;82.66;97985.72;4944213;28;20514;-44
2022/07/12 06:06:27;;;;;;;2.28;1.80;;;18.90;99.90;;;18.98;84.13;97996.75;4944102;28;20039;-44
2022/07/12 06:08:53;;;;;;;1.77;1.60;;;18.90;99.90;;;18.95;84.16;97993.44;4949797;29;20106;-46
2022/07/12 06:11:18;;;;;;;3.40;1.80;;;18.90;99.90;;;18.85;82.98;97993.13;4945101;28;20080;-43
2022/07/12 06:13:44;;;;;;;3.38;1.95;;;18.80;99.90;;;18.78;83.03;97994.44;4941800;28;20039;-43
2022/07/12 06:16:11;;;;;;;2.60;1.98;;;18.80;99.90;;;18.83;83.68;97997.72;4945656;28;20046;-46
2022/07/12 06:18:37;;;;;;;2.58;1.80;;;18.80;99.90;;;18.82;84.39;97998.66;4944184;28;20039;-46
2022/07/12 06:21:03;;;;;;;2.15;1.70;;;18.80;99.90;;;18.87;84.83;98002.78;4944529;28;20031;-46
2022/07/12 06:23:30;;;;;;;4.25;1.70;;;18.90;99.90;;;19.00;84.50;98002.88;4944528;28;20091;-46
2022/07/12 06:25:56;;;;;;;2.28;1.70;;;19.00;99.90;;;19.17;82.92;98015.22;4943896;28;20551;-45
2022/07/12 06:28:22;;;;;;;2.53;1.80;;;19.10;99.90;;;19.27;81.17;98011.03;4938107;28;20035;-44
2022/07/12 06:30:47;;;;;;;2.83;1.70;;;19.20;99.90;;;19.37;79.63;98010.44;4938905;28;20296;-43
2022/07/12 06:33:13;;;;;;;2.33;1.73;;;19.30;99.90;;;19.42;79.21;98000.31;4946003;28;20035;-41
2022/07/12 06:35:39;;;;;;;2.67;1.42;;;19.40;99.90;;;19.52;77.96;98009.44;4947425;28;20174;-44
2022/07/12 06:38:04;;;;;;;1.67;1.20;;;19.50;99.90;;;19.62;77.90;98004.38;4947449;28;20063;-44
2022/07/12 06:40:30;;;;;;;1.50;1.23;;;19.60;99.90;;;19.70;73.58;98010.09;4941599;28;20460;-42
2022/07/12 06:42:57;;;;;;;1.20;0.88;;;19.70;99.90;;;19.71;72.23;98001.13;4945962;28;20031;-46
2022/07/12 06:45:23;;;;;;;1.40;0.85;;;19.80;99.90;;;19.81;71.44;98012.97;4945268;28;20059;-47
2022/07/12 06:47:49;;;;;;;1.30;1.00;;;19.90;99.90;;;19.74;67.29;98010.78;4945068;28;20054;-45
2022/07/12 06:50:14;;;;;;;1.20;0.90;;;19.90;99.90;;;19.74;68.26;98013.44;4948790;28;20485;-46
2022/07/12 06:52:40;;;;;;;3.30;1.20;;;19.80;99.90;;;19.71;66.49;98019.84;4946238;29;20042;-45
2022/07/12 06:55:07;;;;;;;0.77;0.70;;;19.80;99.90;;;19.81;67.53;98018.34;4941082;28;20150;-47
2022/07/12 06:57:34;;;;;;;2.08;1.00;;;19.90;99.90;;;19.85;65.73;98027.03;4943356;28;20110;-44
2022/07/12 07:00:02;;;;;;;0.80;0.80;;;20.00;99.90;;;19.91;67.16;98026.63;4946666;28;20035;-44
2022/07/12 07:02:27;;;;;;;0.90;0.80;;;20.00;99.90;;;20.01;68.03;98017.03;4944287;28;20407;-43
2022/07/12 07:04:53;;;;;;;1.48;0.90;;;20.10;99.90;;;20.01;65.11;98019.72;4944920;28;20039;-46
2022/07/12 07:07:19;;;;;;;1.73;0.80;;;20.10;99.90;;;20.02;64.89;98018.72;4945297;28;20118;-47
2022/07/12 07:09:45;;;;;;;1.33;0.80;;;20.20;99.90;;;20.14;65.45;98019.75;4944876;28;20034;-47
2022/07/12 07:12:10;;;;;;;1.50;1.00;;;20.20;99.90;;;20.14;63.46;98026.94;4941613;28;20462;-43
2022/07/12 07:14:36;;;;;;;1.17;0.80;;;20.30;99.90;;;20.23;64.02;98034.34;4948773;28;20071;-44
2022/07/12 07:17:02;;;;;;;1.75;0.50;;;20.30;99.90;;;20.38;64.66;98030.63;4944066;28;20057;-47
2022/07/12 07:19:28;;;;;;;0.73;0.70;;;20.40;99.90;;;20.54;64.17;98032.31;4946072;28;20117;-44
2022/07/12 07:21:55;;;;;;;0.90;0.70;;;20.60;99.90;;;20.64;63.14;98041.47;4945262;28;20038;-44
2022/07/12 07:24:21;;;;;;;2.33;0.90;;;20.70;99.90;;;20.75;67.31;98038.91;4942024;28;20031;-43
2022/07/12 07:26:47;;;;;;;1.25;0.90;;;20.70;99.90;;;20.87;68.70;98042.59;4945634;28;20330;-45
2022/07/12 07:31:57;;;;;;;0.60;0.55;;;20.90;99.90;;;21.01;62.33;98046.13;4943413;29;20494;-46
2022/07/12 07:34:23;;;;;;;1.50;1.17;;;21.00;99.90;;;21.02;62.23;98034.44;4946712;28;20035;-44
2022/07/12 07:36:50;;;;;;;0.73;0.57;;;21.10;99.90;;;21.07;59.66;98043.88;4941489;28;20027;-43
2022/07/12 07:39:16;;;;;;;0.85;0.70;;;21.10;99.90;;;21.22;64.50;98041.09;4942662;29;20118;-43
2022/07/12 07:41:41;;;;;;;0.85;0.77;;;21.20;99.90;;;21.05;58.91;98048.50;4947380;28;20175;-43
2022/07/12 07:44:07;;;;;;;0.68;0.68;;;21.20;99.90;;;20.99;60.84;98046.22;4944053;28;20027;-46
2022/07/12 07:46:33;;;;;;;1.67;0.80;;;21.10;99.90;;;21.10;60.48;98046.38;4943321;28;20023;-46
2022/07/12 07:48:59;;;;;;;0.57;0.52;;;21.20;99.90;;;21.22;59.35;98052.69;4946502;29;20551;-47
2022/07/12 07:51:24;;;;;;;1.30;0.60;;;21.30;99.90;;;21.28;58.35;98046.03;4941450;28;20654;-45
2022/07/12 07:53:50;;;;;;;0.65;0.65;;;21.30;99.90;;;21.10;58.18;98027.59;4942974;28;20039;-46
2022/07/12 07:56:16;;;;;;;1.75;0.80;;;21.30;99.90;;;21.31;57.39;98054.72;4941451;28;20491;-47
2022/07/12 07:58:41;;;;;;;0.45;0.40;;;21.40;99.90;;;21.35;56.99;98045.50;4945099;29;20059;-44
2022/07/12 08:01:07;;;;;;;1.98;0.50;;;21.40;99.50;;;21.29;55.27;98048.59;4941760;28;20039;-44
2022/07/12 08:03:33;;;;;;;0.57;0.40;;;21.40;98.50;;;21.35;54.87;98058.03;4944905;28;20427;-44
2022/07/12 08:06:00;;;;;;;0.80;0.40;;;21.50;98.40;;;21.52;55.64;98057.75;4939429;28;20082;-44
2022/07/12 08:08:30;;;;;;;0.60;0.60;;;21.60;98.70;;;21.56;55.43;98049.47;4943740;28;20031;-43
2022/07/12 08:10:56;;;;;;;0.45;0.45;;;21.60;98.30;;;21.52;53.86;98049.69;4942626;28;20584;-47
2022/07/12 08:13:23;;;;;;;0.38;0.30;;;21.70;97.30;;;21.49;53.55;98047.22;4942161;28;20071;-46
2022/07/12 08:15:49;;;;;;;0.30;0.30;;;21.60;97.30;;;21.51;54.32;98042.59;4945876;28;20034;-44
2022/07/12 08:18:15;;;;;;;0.40;0.40;;;21.60;97.70;;;21.58;53.44;98045.72;4945798;29;20043;-45
2022/07/12 08:20:40;;;;;;;0.30;0.30;;;21.70;97.50;;;21.59;51.48;98043.88;4944364;28;20506;-45
2022/07/12 08:23:06;;;;;;;0.40;0.40;;;21.70;96.10;;;21.48;51.66;98041.94;4942548;28;20453;-46
2022/07/12 08:25:32;;;;;;;1.10;0.60;;;21.60;95.80;;;21.46;53.70;98038.53;4944568;28;20480;-43
2022/07/12 08:27:58;;;;;;;0.65;0.40;;;21.60;96.40;;;21.53;53.23;98032.63;4945748;28;20063;-44
2022/07/12 08:30:23;;;;;;;0.50;0.50;;;21.60;96.40;;;21.56;52.70;98017.28;4942637;29;20027;-46
2022/07/12 08:32:49;;;;;;;3.60;0.47;;;21.70;96.50;;;21.79;53.12;98034.41;4944409;28;20270;-47
2022/07/12 08:35:15;;;;;;;0.80;0.52;;;21.80;96.40;;;21.91;53.15;98031.69;4942878;28;20051;-47
2022/07/12 08:37:42;;;;;;;0.55;0.52;;;21.90;96.60;;;21.91;52.30;98033.47;4944091;28;20615;-46
2022/07/12 08:40:09;;;;;;;0.63;0.50;;;22.10;96.20;;;21.99;53.13;98019.50;4931455;28;20459;-45
2022/07/12 08:42:36;;;;;;;0.50;0.50;;;22.10;96.30;;;22.12;53.58;98036.44;4942395;29;20057;-44
2022/07/12 08:45:02;;;;;;;0.98;0.70;;;22.20;96.50;;;22.14;51.52;98034.47;4942098;28;20035;-46
2022/07/12 08:47:28;;;;;;;0.70;0.70;;;22.30;95.50;;;22.16;52.19;98043.28;4944522;28;20036;-46
2022/07/12 08:50:19;;;;;;;0.65;0.63;;;22.30;95.40;;;21.96;50.99;98047.44;4942374;28;20027;-45
2022/07/12 08:52:51;;;;;;;0.80;0.52;;;22.20;94.60;;;22.02;52.83;98043.44;4940503;28;20043;-43
2022/07/12 08:55:22;;;;;;;0.93;0.73;;;22.20;95.10;;;22.05;52.39;98053.97;4942428;28;20039;-47
2022/07/12 08:57:51;;;;;;;4.30;0.90;;;22.20;95.40;;;22.24;52.89;98054.31;4940795;28;20044;-45
2022/07/12 09:00:17;;;;;;;1.23;0.80;;;22.40;95.60;;;22.42;52.14;98048.59;4939634;28;20582;-46
2022/07/12 09:02:48;;;;;;;1.33;0.75;;;22.60;95.40;;;22.68;51.11;98060.03;4944888;28;20058;-46
2022/07/12 09:05:15;;;;;;;0.50;0.50;;;22.80;94.90;;;22.95;49.65;98056.22;4936079;28;20035;-46
2022/07/12 09:07:41;;;;;;;2.25;0.80;;;23.10;94.00;;;23.03;48.80;98060.03;4947341;28;20043;-45
2022/07/12 09:10:09;;;;;;;1.08;0.77;;;23.20;93.50;;;23.09;48.80;98061.41;4942189;29;20082;-46
2022/07/12 09:12:36;;;;;;;1.67;0.70;;;23.30;93.10;;;23.24;48.59;98054.84;4943243;28;20035;-46
2022/07/12 09:15:17;;;;;;;2.05;0.85;;;23.50;92.90;;;23.47;47.91;98057.53;4945606;28;20035;-43
2022/07/12 09:18:01;;;;;;;0.90;0.68;;;23.70;92.50;;;23.60;47.21;98061.00;4942814;28;20109;-45
2022/07/12 09:20:36;;;;;;;0.80;0.60;;;23.80;91.70;;;23.77;47.08;98059.63;4943047;28;20035;-47
2022/07/12 09:23:06;;;;;;;1.90;0.85;;;23.90;91.90;;;23.70;46.63;98054.88;4944019;28;20035;-44
2022/07/12 09:25:32;;;;;;;0.60;0.60;;;23.90;91.10;;;23.81;45.88;98057.56;4948107;28;20035;-45
2022/07/12 09:27:59;;;;;;;1.17;0.63;;;24.00;90.90;;;23.96;45.41;98068.97;4946007;28;20114;-44
2022/07/12 09:30:27;;;;;;;0.80;0.65;;;24.10;90.40;;;23.93;45.03;98063.81;4945431;28;20480;-45
2022/07/12 09:36:17;;;;;;;2.22;0.60;;;24.10;87.40;;;23.43;46.10;98050.69;4943469;28;20572;-46
2022/07/12 09:38:50;;;;;;;2.35;0.68;;;23.80;90.00;;;23.49;46.96;98055.63;4943545;29;20507;-44
2022/07/12 09:41:21;;;;;;;0.75;0.63;;;23.80;90.40;;;23.53;46.26;98050.84;4947347;28;20043;-45
2022/07/12 09:43:48;;;;;;;0.60;0.60;;;23.80;90.10;;;23.61;45.32;98049.22;4947335;29;20043;-44
2022/07/12 09:46:14;;;;;;;0.65;0.60;;;23.80;89.30;;;23.71;45.94;98054.75;4944849;28;20039;-44
2022/07/12 09:48:41;;;;;;;0.80;0.60;;;23.90;89.50;;;23.69;44.65;98051.31;4934528;29;20089;-47
2022/07/12 09:51:09;;;;;;;0.95;0.60;;;23.90;87.70;;;23.58;46.34;98054.00;4941564;29;20035;-46
2022/07/12 09:53:47;;;;;;;0.80;0.50;;;23.80;89.40;;;23.71;46.25;98054.75;4946437;29;20591;-48
2022/07/12 09:56:19;;;;;;;0.93;0.52;;;23.80;89.20;;;23.70;47.37;98055.72;4947231;28;20095;-45
2022/07/12 09:58:57;;;;;;;0.50;0.50;;;23.90;90.10;;;23.87;46.03;98054.41;4941092;28;20042;-46
2022/07/12 10:01:24;;;;;;;1.42;0.68;;;24.10;89.40;;;24.03;45.15;98056.72;4947986;29;20039;-44
2022/07/12 10:03:52;;;;;;;0.70;0.60;;;24.10;88.00;;;24.00;45.67;98055.09;4948403;28;20031;-44
2022/07/12 10:06:26;;;;;;;0.75;0.43;;;24.20;88.50;;;24.06;46.01;98064.50;4945722;28;20487;-46
2022/07/12 10:08:57;;;;;;;1.45;0.73;;;24.20;87.70;;;24.13;45.28;98054.09;4948942;28;20480;-46
2022/07/12 10:11:26;;;;;;;2.10;0.63;;;24.30;87.10;;;24.05;45.18;98061.94;4944908;29;20035;-47
2022/07/12 10:13:54;;;;;;;0.68;0.50;;;24.30;86.30;;;24.10;45.46;98062.44;4934372;29;20118;-45
2022/07/12 10:16:33;;;;;;;0.77;0.40;;;24.30;86.80;;;23.99;45.08;98048.03;4929937;29;20042;-44
2022/07/12 10:19:31;;;;;;;0.65;0.50;;;24.30;86.00;;;24.01;44.92;98064.03;4938373;28;20054;-45
2022/07/12 10:22:00;;;;;;;0.50;0.50;;;24.30;85.80;;;24.01;45.21;98062.22;4934759;28;20653;-44
2022/07/12 10:24:47;;;;;;;0.77;0.63;;;24.30;85.80;;;24.01;44.81;98058.63;4941869;28;20034;-45
2022/07/12 10:27:13;;;;;;;0.57;0.50;;;24.20;85.70;;;23.56;45.72;98062.22;4941094;28;20675;-45